Time;durP1;ratioP1;P1;durP2;ratioP2;P2;SDS_P1;SDS_P2;PMS_P1;PMS_P2;Temp;Humidity;BMP_temperature;BMP_pressure;BME280_temperature;BME280_humidity;BME280_pressure;Samples;Min_cycle;Max_cycle;Signal;HPM_P1;HPM_P2
2022/01/09 00:00:23;;;;;;;253.18;92.97;;;;;;;;;;5032940;28;20492;-82
2022/01/09 00:02:49;;;;;;;246.73;90.90;;;;;;;;;;5032495;28;20095;-80
2022/01/09 00:05:16;;;;;;;257.57;91.20;;;;;;;;;;5033169;28;20060;-81
2022/01/09 00:07:43;;;;;;;257.50;92.40;;;;;;;;;;5032406;28;20042;-83
2022/01/09 00:10:09;;;;;;;253.57;89.78;;;;;;;;;;5015007;28;20116;-82
2022/01/09 00:12:36;;;;;;;249.75;90.15;;;;;;;;;;5032587;28;20619;-84
2022/01/09 00:15:03;;;;;;;273.38;90.47;;;;;;;;;;5032523;28;20040;-82
2022/01/09 00:17:30;;;;;;;247.65;87.05;;;;;;;;;;5031476;28;20428;-83
2022/01/09 00:19:56;;;;;;;226.18;87.97;;;;;;;;;;5007972;28;20445;-82
2022/01/09 00:22:33;;;;;;;238.50;86.90;;;;;;;;;;5024460;28;20096;-84
2022/01/09 00:25:01;;;;;;;243.98;85.15;;;;;;;;;;5032905;28;20390;-82
2022/01/09 00:27:27;;;;;;;228.65;80.53;;;;;;;;;;5032967;28;20396;-82
2022/01/09 00:29:53;;;;;;;225.23;79.90;;;;;;;;;;5015056;28;20029;-83
2022/01/09 00:32:20;;;;;;;217.27;81.10;;;;;;;;;;5032835;28;20033;-81
2022/01/09 00:34:46;;;;;;;200.55;75.57;;;;;;;;;;5032451;28;20026;-81
2022/01/09 00:37:12;;;;;;;191.00;69.80;;;;;;;;;;5032163;28;20033;-83
2022/01/09 00:39:38;;;;;;;205.88;73.43;;;;;;;;;;5031175;28;20269;-84
2022/01/09 00:42:05;;;;;;;220.18;79.00;;;;;;;;;;5032690;28;20026;-84
2022/01/09 00:44:31;;;;;;;206.20;72.53;;;;;;;;;;5028470;28;20476;-82
2022/01/09 00:47:00;;;;;;;196.45;73.68;;;;;;;;;;5032884;28;20034;-82
2022/01/09 00:49:26;;;;;;;196.80;71.38;;;;;;;;;;5015742;28;20026;-81
2022/01/09 00:51:53;;;;;;;193.80;70.38;;;;;;;;;;5036796;28;20022;-84
2022/01/09 00:54:20;;;;;;;234.68;78.88;;;;;;;;;;5036154;28;20030;-83
2022/01/09 00:56:48;;;;;;;221.68;75.18;;;;;;;;;;5018665;28;20040;-83
2022/01/09 00:59:14;;;;;;;181.43;69.70;;;;;;;;;;5035593;28;20103;-83
2022/01/09 01:01:40;;;;;;;192.50;71.47;;;;;;;;;;5018598;28;20040;-83
2022/01/09 01:04:07;;;;;;;199.15;73.03;;;;;;;;;;5018523;28;20029;-82
2022/01/09 01:06:33;;;;;;;203.73;71.75;;;;;;;;;;5035582;28;20033;-83
2022/01/09 01:08:59;;;;;;;188.50;68.28;;;;;;;;;;5035003;28;20025;-83
2022/01/09 01:11:25;;;;;;;168.32;65.90;;;;;;;;;;5034571;28;20029;-84
2022/01/09 01:13:52;;;;;;;162.80;67.17;;;;;;;;;;5033653;28;20041;-84
2022/01/09 01:16:18;;;;;;;170.93;66.05;;;;;;;;;;5035477;28;20033;-84
2022/01/09 01:18:45;;;;;;;187.88;67.88;;;;;;;;;;5017946;28;20025;-82
2022/01/09 01:21:12;;;;;;;175.93;63.63;;;;;;;;;;5035592;28;20049;-84
2022/01/09 01:23:39;;;;;;;177.45;67.03;;;;;;;;;;5017844;28;20125;-82
2022/01/09 01:26:06;;;;;;;179.80;68.40;;;;;;;;;;5035531;28;20080;-83
2022/01/09 01:28:32;;;;;;;179.85;67.38;;;;;;;;;;5017517;28;20039;-82
2022/01/09 01:30:59;;;;;;;168.98;67.00;;;;;;;;;;5033657;28;20025;-84
2022/01/09 01:33:26;;;;;;;159.77;61.58;;;;;;;;;;5034603;28;20362;-82
2022/01/09 01:35:52;;;;;;;167.63;63.38;;;;;;;;;;5034839;28;20034;-82
2022/01/09 01:38:19;;;;;;;169.70;65.85;;;;;;;;;;5034804;28;20037;-84
2022/01/09 01:40:45;;;;;;;184.57;66.18;;;;;;;;;;5035169;28;20100;-83
2022/01/09 01:43:12;;;;;;;192.95;69.68;;;;;;;;;;5033950;28;20041;-82
2022/01/09 01:45:38;;;;;;;197.57;71.63;;;;;;;;;;5030600;28;20030;-82
2022/01/09 01:48:09;;;;;;;178.17;67.43;;;;;;;;;;5032602;28;20387;-83
2022/01/09 01:50:37;;;;;;;152.80;61.28;;;;;;;;;;5033444;28;20076;-83
2022/01/09 01:53:10;;;;;;;156.83;62.90;;;;;;;;;;5013050;28;20083;-81
2022/01/09 01:55:38;;;;;;;179.53;64.63;;;;;;;;;;5033971;28;20108;-82
2022/01/09 01:58:05;;;;;;;162.73;63.50;;;;;;;;;;5030387;28;20365;-81
2022/01/09 02:00:32;;;;;;;158.77;62.77;;;;;;;;;;5034872;28;20060;-83
2022/01/09 02:02:59;;;;;;;151.37;63.17;;;;;;;;;;5034933;28;20072;-81
2022/01/09 02:05:25;;;;;;;155.95;60.47;;;;;;;;;;5024891;28;20034;-82
2022/01/09 02:07:52;;;;;;;180.97;67.27;;;;;;;;;;5031842;28;20030;-84
2022/01/09 02:10:18;;;;;;;165.20;63.25;;;;;;;;;;5035078;28;20025;-82
2022/01/09 02:12:45;;;;;;;164.23;62.77;;;;;;;;;;5034796;28;20066;-82
2022/01/09 02:15:30;;;;;;;150.13;61.20;;;;;;;;;;5034940;28;20029;-82
2022/01/09 02:17:57;;;;;;;171.10;63.30;;;;;;;;;;5034950;28;20032;-83
2022/01/09 02:20:23;;;;;;;163.65;63.53;;;;;;;;;;5034835;28;20048;-82
2022/01/09 02:22:49;;;;;;;179.75;63.10;;;;;;;;;;5033724;28;20050;-83
2022/01/09 02:25:16;;;;;;;167.77;62.40;;;;;;;;;;5029944;28;20037;-84
2022/01/09 02:27:42;;;;;;;160.13;59.03;;;;;;;;;;5031630;28;20045;-80
2022/01/09 02:30:09;;;;;;;157.73;62.38;;;;;;;;;;5018792;28;20021;-83
2022/01/09 02:32:35;;;;;;;169.25;62.72;;;;;;;;;;5033400;28;20025;-82
2022/01/09 02:35:02;;;;;;;151.98;61.25;;;;;;;;;;5033762;28;20147;-83
2022/01/09 02:37:28;;;;;;;142.07;58.05;;;;;;;;;;5034969;28;20040;-83
2022/01/09 02:39:54;;;;;;;150.65;58.78;;;;;;;;;;5033570;28;20053;-83
2022/01/09 02:42:23;;;;;;;138.07;58.50;;;;;;;;;;5016561;28;20049;-85
2022/01/09 02:44:50;;;;;;;140.65;58.65;;;;;;;;;;5034507;28;20032;-82
2022/01/09 02:47:16;;;;;;;140.90;58.33;;;;;;;;;;5012545;28;20392;-82
2022/01/09 02:49:47;;;;;;;133.38;57.92;;;;;;;;;;5032785;28;20033;-83
2022/01/09 02:52:28;;;;;;;140.82;55.60;;;;;;;;;;5012873;28;20028;-83
2022/01/09 02:55:12;;;;;;;140.57;56.97;;;;;;;;;;5010164;28;20076;-84
2022/01/09 02:57:39;;;;;;;144.70;56.60;;;;;;;;;;5014303;28;20034;-82
2022/01/09 03:00:10;;;;;;;143.57;58.90;;;;;;;;;;5026782;28;20388;-81
2022/01/09 03:02:36;;;;;;;133.52;57.35;;;;;;;;;;5028419;28;20037;-83
2022/01/09 03:05:03;;;;;;;141.07;57.13;;;;;;;;;;5028513;28;20025;-84
2022/01/09 03:07:29;;;;;;;152.73;60.77;;;;;;;;;;5031644;28;20052;-83
2022/01/09 03:09:55;;;;;;;152.00;62.40;;;;;;;;;;5031174;28;20440;-80
2022/01/09 03:12:23;;;;;;;158.83;64.53;;;;;;;;;;5028953;28;20026;-82
2022/01/09 03:14:49;;;;;;;149.60;62.63;;;;;;;;;;5028348;28;20032;-83
2022/01/09 03:17:16;;;;;;;161.40;65.80;;;;;;;;;;5008450;28;20036;-81
2022/01/09 03:19:42;;;;;;;142.80;58.63;;;;;;;;;;5021134;28;20038;-83
2022/01/09 03:22:09;;;;;;;146.43;63.03;;;;;;;;;;5023602;28;20049;-83
2022/01/09 03:24:35;;;;;;;142.55;62.33;;;;;;;;;;5008596;28;20362;-82
2022/01/09 03:27:02;;;;;;;137.30;60.67;;;;;;;;;;5025921;28;20037;-83
2022/01/09 03:29:28;;;;;;;153.10;61.03;;;;;;;;;;5025446;28;20399;-80
2022/01/09 03:31:55;;;;;;;146.55;58.50;;;;;;;;;;5024723;28;20028;-81
2022/01/09 03:34:21;;;;;;;152.60;63.23;;;;;;;;;;5023375;28;20101;-83
2022/01/09 03:36:48;;;;;;;148.52;63.90;;;;;;;;;;5006053;28;20532;-83
2022/01/09 03:39:14;;;;;;;148.13;62.57;;;;;;;;;;5031725;28;20040;-82
2022/01/09 03:41:40;;;;;;;144.02;60.33;;;;;;;;;;5028703;28;20030;-82
2022/01/09 03:44:07;;;;;;;156.98;62.42;;;;;;;;;;5013393;28;20144;-83
2022/01/09 03:46:33;;;;;;;144.90;61.67;;;;;;;;;;5030230;28;20052;-83
2022/01/09 03:48:59;;;;;;;151.68;64.97;;;;;;;;;;5026738;28;20485;-84
2022/01/09 03:51:32;;;;;;;148.32;62.40;;;;;;;;;;5021358;28;20017;-82
2022/01/09 03:53:58;;;;;;;152.45;63.83;;;;;;;;;;5026835;28;20046;-83
2022/01/09 03:56:25;;;;;;;166.52;66.32;;;;;;;;;;5030915;28;20040;-81
2022/01/09 03:58:51;;;;;;;158.23;64.07;;;;;;;;;;5040592;28;20025;-84
2022/01/09 04:01:17;;;;;;;146.73;62.65;;;;;;;;;;5039748;28;20481;-81
2022/01/09 04:03:44;;;;;;;152.95;64.28;;;;;;;;;;5026906;28;20547;-82
2022/01/09 04:06:10;;;;;;;142.70;63.50;;;;;;;;;;5024658;28;20381;-82
2022/01/09 04:08:38;;;;;;;153.43;64.67;;;;;;;;;;5027798;28;20137;-83
2022/01/09 04:11:04;;;;;;;169.57;68.23;;;;;;;;;;5006711;28;20025;-83
2022/01/09 04:13:31;;;;;;;158.73;67.40;;;;;;;;;;5023035;28;20056;-83
2022/01/09 04:15:58;;;;;;;146.50;65.43;;;;;;;;;;5023270;28;20022;-82
2022/01/09 04:18:25;;;;;;;145.35;62.88;;;;;;;;;;5027040;28;20083;-84
2022/01/09 04:20:52;;;;;;;151.25;65.43;;;;;;;;;;5007482;28;20053;-83
2022/01/09 04:23:20;;;;;;;163.43;67.95;;;;;;;;;;5005386;28;20369;-82
2022/01/09 04:25:46;;;;;;;151.63;67.72;;;;;;;;;;5006086;28;20030;-85
2022/01/09 04:28:13;;;;;;;157.20;67.63;;;;;;;;;;5004699;28;20122;-85
2022/01/09 04:30:40;;;;;;;153.57;64.03;;;;;;;;;;5006675;28;20057;-83
2022/01/09 04:33:06;;;;;;;137.63;64.22;;;;;;;;;;5007597;28;20472;-82
2022/01/09 04:35:33;;;;;;;152.32;63.90;;;;;;;;;;5009370;28;20477;-82
2022/01/09 04:37:59;;;;;;;157.38;67.78;;;;;;;;;;5009078;28;20030;-84
2022/01/09 04:40:25;;;;;;;148.35;64.05;;;;;;;;;;5006444;28;20384;-83
2022/01/09 04:42:57;;;;;;;161.52;67.38;;;;;;;;;;5007476;28;20050;-84
2022/01/09 04:45:25;;;;;;;165.93;68.60;;;;;;;;;;4987019;28;20038;-84
2022/01/09 04:47:53;;;;;;;147.82;62.85;;;;;;;;;;4988044;28;20434;-82
2022/01/09 04:50:25;;;;;;;165.38;68.40;;;;;;;;;;5008134;28;20432;-83
2022/01/09 04:52:57;;;;;;;145.57;66.25;;;;;;;;;;5008279;28;20400;-85
2022/01/09 04:55:24;;;;;;;155.88;66.75;;;;;;;;;;5012255;28;20026;-84
2022/01/09 04:57:50;;;;;;;152.73;66.57;;;;;;;;;;5007278;28;20496;-84
2022/01/09 05:00:16;;;;;;;158.63;67.30;;;;;;;;;;5011799;28;20065;-84
2022/01/09 05:02:43;;;;;;;153.48;67.05;;;;;;;;;;5010227;28;20038;-83
2022/01/09 05:05:09;;;;;;;158.55;67.28;;;;;;;;;;4988903;28;20080;-83
2022/01/09 05:07:36;;;;;;;159.77;69.57;;;;;;;;;;5005302;28;20050;-83
2022/01/09 05:10:07;;;;;;;158.38;70.05;;;;;;;;;;4995265;28;20040;-85
2022/01/09 05:12:33;;;;;;;157.45;73.43;;;;;;;;;;4992676;28;20025;-83
2022/01/09 05:15:00;;;;;;;173.50;73.97;;;;;;;;;;5012025;28;20037;-82
2022/01/09 05:17:26;;;;;;;170.50;72.47;;;;;;;;;;5015033;28;20045;-83
2022/01/09 05:19:57;;;;;;;177.25;74.43;;;;;;;;;;5015470;28;20208;-82
2022/01/09 05:22:24;;;;;;;172.73;72.60;;;;;;;;;;5009148;28;20132;-82
2022/01/09 05:24:51;;;;;;;155.65;69.88;;;;;;;;;;5034752;28;20025;-83
2022/01/09 05:27:17;;;;;;;178.65;74.38;;;;;;;;;;5029692;28;20038;-83
2022/01/09 05:29:44;;;;;;;169.88;75.35;;;;;;;;;;5021084;28;20033;-80
2022/01/09 05:32:10;;;;;;;167.10;71.63;;;;;;;;;;5032144;28;20025;-85
2022/01/09 05:34:36;;;;;;;165.10;73.68;;;;;;;;;;5034445;28;20037;-83
2022/01/09 05:37:04;;;;;;;168.25;73.88;;;;;;;;;;5017063;28;20540;-84
2022/01/09 05:39:32;;;;;;;170.95;77.07;;;;;;;;;;5034579;28;20033;-84
2022/01/09 05:41:58;;;;;;;170.50;75.97;;;;;;;;;;5016811;28;20065;-85
2022/01/09 05:44:25;;;;;;;167.15;76.85;;;;;;;;;;5034147;28;20453;-83
2022/01/09 05:46:51;;;;;;;155.63;73.28;;;;;;;;;;5027025;28;20053;-83
2022/01/09 05:49:17;;;;;;;169.98;76.10;;;;;;;;;;5034836;28;20388;-82
2022/01/09 05:51:44;;;;;;;172.00;74.93;;;;;;;;;;5014670;28;20197;-83
2022/01/09 05:54:10;;;;;;;162.80;71.18;;;;;;;;;;5030154;28;20512;-84
2022/01/09 05:56:36;;;;;;;156.25;71.30;;;;;;;;;;5028854;28;20385;-84
2022/01/09 05:59:03;;;;;;;164.20;75.35;;;;;;;;;;5027934;28;20029;-86
2022/01/09 06:01:29;;;;;;;164.80;74.18;;;;;;;;;;5031758;28;20041;-83
2022/01/09 06:03:56;;;;;;;144.85;69.18;;;;;;;;;;5014489;28;20030;-82
2022/01/09 06:06:22;;;;;;;144.85;67.75;;;;;;;;;;5034334;28;20028;-82
2022/01/09 06:08:48;;;;;;;160.30;71.03;;;;;;;;;;5029989;28;20112;-83
2022/01/09 06:11:14;;;;;;;144.88;68.43;;;;;;;;;;5014349;28;20044;-84
2022/01/09 06:13:41;;;;;;;152.00;70.07;;;;;;;;;;5013154;28;20477;-86
2022/01/09 06:16:07;;;;;;;158.77;69.28;;;;;;;;;;5029622;28;20017;-85
2022/01/09 06:18:34;;;;;;;156.80;70.38;;;;;;;;;;5024104;28;20026;-83
2022/01/09 06:21:00;;;;;;;162.07;72.03;;;;;;;;;;5011419;28;20480;-83
2022/01/09 06:23:26;;;;;;;150.25;71.78;;;;;;;;;;5029070;28;20025;-82
2022/01/09 06:25:53;;;;;;;152.10;73.55;;;;;;;;;;5031317;28;20056;-85
2022/01/09 06:28:19;;;;;;;146.55;69.10;;;;;;;;;;5023074;28;20108;-85
2022/01/09 06:30:45;;;;;;;153.13;69.22;;;;;;;;;;5033166;28;20469;-84
2022/01/09 06:33:12;;;;;;;158.23;73.05;;;;;;;;;;5027745;28;20022;-82
2022/01/09 06:35:39;;;;;;;150.95;72.13;;;;;;;;;;5031988;28;20014;-82
2022/01/09 06:38:05;;;;;;;151.85;71.28;;;;;;;;;;5032808;28;20026;-84
2022/01/09 06:40:32;;;;;;;150.43;71.03;;;;;;;;;;5028641;28;20052;-84
2022/01/09 06:42:58;;;;;;;153.30;67.90;;;;;;;;;;5027646;28;20025;-84
2022/01/09 06:45:26;;;;;;;164.15;73.13;;;;;;;;;;5032275;28;20388;-83
2022/01/09 06:47:53;;;;;;;156.65;72.15;;;;;;;;;;5027202;28;20362;-82
2022/01/09 06:50:19;;;;;;;150.98;71.22;;;;;;;;;;5031492;28;20052;-83
2022/01/09 06:52:46;;;;;;;152.40;69.15;;;;;;;;;;5031506;28;20384;-83
2022/01/09 06:55:12;;;;;;;143.98;68.22;;;;;;;;;;5007291;28;20427;-82
2022/01/09 06:57:39;;;;;;;163.48;70.35;;;;;;;;;;5032465;28;20028;-84
2022/01/09 07:00:06;;;;;;;150.13;73.28;;;;;;;;;;5015090;28;20500;-84
2022/01/09 07:02:32;;;;;;;153.88;75.35;;;;;;;;;;5033080;28;20234;-83
2022/01/09 07:04:58;;;;;;;150.88;71.30;;;;;;;;;;5034243;28;20465;-85
2022/01/09 07:07:25;;;;;;;156.68;74.82;;;;;;;;;;5033520;28;20033;-82
2022/01/09 07:09:51;;;;;;;152.05;72.63;;;;;;;;;;5033481;28;20033;-84
2022/01/09 07:12:19;;;;;;;149.80;71.82;;;;;;;;;;5030123;28;20100;-84
2022/01/09 07:14:46;;;;;;;150.40;71.90;;;;;;;;;;5005184;28;20029;-84
2022/01/09 07:17:12;;;;;;;153.70;72.25;;;;;;;;;;5026503;28;20087;-81
2022/01/09 07:19:39;;;;;;;157.85;75.88;;;;;;;;;;5031847;28;20029;-82
2022/01/09 07:22:05;;;;;;;165.07;77.22;;;;;;;;;;5030617;28;20404;-84
2022/01/09 07:24:32;;;;;;;168.27;75.50;;;;;;;;;;5012254;28;20495;-84
2022/01/09 07:26:59;;;;;;;167.68;79.68;;;;;;;;;;5034323;28;20028;-82
2022/01/09 07:29:25;;;;;;;165.52;73.35;;;;;;;;;;5025840;28;20109;-82
2022/01/09 07:31:51;;;;;;;168.18;79.40;;;;;;;;;;5028980;28;20515;-83
2022/01/09 07:34:18;;;;;;;166.77;77.10;;;;;;;;;;5022631;28;20025;-83
2022/01/09 07:36:45;;;;;;;165.43;80.63;;;;;;;;;;5025974;28;20099;-83
2022/01/09 07:39:11;;;;;;;160.43;77.47;;;;;;;;;;5033940;28;20032;-84
2022/01/09 07:41:37;;;;;;;174.20;83.60;;;;;;;;;;5015029;28;20350;-85
2022/01/09 07:44:04;;;;;;;166.70;80.13;;;;;;;;;;5034556;28;20066;-83
2022/01/09 07:46:30;;;;;;;183.10;86.63;;;;;;;;;;5040085;28;20025;-83
2022/01/09 07:48:56;;;;;;;171.80;83.32;;;;;;;;;;5039227;28;20022;-83
2022/01/09 07:51:26;;;;;;;170.52;81.55;;;;;;;;;;5033825;28;20111;-86
2022/01/09 07:53:52;;;;;;;166.63;80.65;;;;;;;;;;5015643;28;20465;-82
2022/01/09 07:56:19;;;;;;;173.48;82.78;;;;;;;;;;5028865;28;20026;-83
2022/01/09 07:58:45;;;;;;;175.73;84.93;;;;;;;;;;5033457;28;20120;-85
2022/01/09 08:01:12;;;;;;;168.45;82.85;;;;;;;;;;5033946;28;20029;-84
2022/01/09 08:03:38;;;;;;;176.93;85.50;;;;;;;;;;5033051;28;20026;-82
2022/01/09 08:06:04;;;;;;;187.85;89.13;;;;;;;;;;5028525;28;20025;-84
2022/01/09 08:08:31;;;;;;;185.10;89.45;;;;;;;;;;5032168;28;20129;-85
2022/01/09 08:10:57;;;;;;;182.57;89.25;;;;;;;;;;5029103;28;20164;-83
2022/01/09 08:13:23;;;;;;;187.65;89.85;;;;;;;;;;5028029;28;20469;-82
2022/01/09 08:15:50;;;;;;;186.95;93.68;;;;;;;;;;5028848;28;20057;-84
2022/01/09 08:18:16;;;;;;;196.00;96.00;;;;;;;;;;5031431;28;20112;-84
2022/01/09 08:20:42;;;;;;;196.35;99.15;;;;;;;;;;5026053;28;20030;-84
2022/01/09 08:23:08;;;;;;;188.27;94.03;;;;;;;;;;5013194;28;20037;-83
2022/01/09 08:25:36;;;;;;;190.80;94.72;;;;;;;;;;5006629;28;20472;-83
2022/01/09 08:28:03;;;;;;;187.65;93.35;;;;;;;;;;5006611;28;20492;-84
2022/01/09 08:30:29;;;;;;;183.07;91.50;;;;;;;;;;5012621;28;20022;-86
2022/01/09 08:32:56;;;;;;;188.82;90.40;;;;;;;;;;5010119;28;20385;-83
2022/01/09 08:35:23;;;;;;;190.48;89.38;;;;;;;;;;4997086;28;20026;-88
2022/01/09 08:37:49;;;;;;;185.18;88.72;;;;;;;;;;5005726;28;20109;-84
2022/01/09 08:40:19;;;;;;;180.15;90.68;;;;;;;;;;5013405;28;20051;-85
2022/01/09 08:42:46;;;;;;;181.85;88.95;;;;;;;;;;5011657;28;20029;-82
2022/01/09 08:45:13;;;;;;;188.85;88.25;;;;;;;;;;5013362;28;20484;-84
2022/01/09 08:47:39;;;;;;;184.65;89.10;;;;;;;;;;5007131;28;20491;-85
2022/01/09 08:50:06;;;;;;;178.27;87.80;;;;;;;;;;4997658;28;20026;-83
2022/01/09 08:52:33;;;;;;;177.68;87.22;;;;;;;;;;5005238;28;20033;-84
2022/01/09 08:54:59;;;;;;;190.10;91.38;;;;;;;;;;4983423;28;20033;-82
2022/01/09 08:57:25;;;;;;;193.68;92.55;;;;;;;;;;5010077;28;20483;-84
2022/01/09 08:59:55;;;;;;;192.05;90.75;;;;;;;;;;4992919;28;20030;-83
2022/01/09 09:02:21;;;;;;;203.35;93.05;;;;;;;;;;4991946;28;20026;-83
2022/01/09 09:04:47;;;;;;;196.30;94.15;;;;;;;;;;5012227;28;20493;-82
2022/01/09 09:07:16;;;;;;;196.00;96.35;;;;;;;;;;4984685;28;20085;-84
2022/01/09 09:09:42;;;;;;;217.73;95.47;;;;;;;;;;4975435;28;20062;-82
2022/01/09 09:12:08;;;;;;;199.98;93.22;;;;;;;;;;5002098;28;20030;-83
2022/01/09 09:14:35;;;;;;;199.88;97.32;;;;;;;;;;5001465;28;20027;-84
2022/01/09 09:17:01;;;;;;;211.38;99.15;;;;;;;;;;5001700;28;20365;-83
2022/01/09 09:19:27;;;;;;;209.13;97.97;;;;;;;;;;4997561;28;20030;-83
2022/01/09 09:21:54;;;;;;;212.98;100.40;;;;;;;;;;5022960;28;20057;-81
2022/01/09 09:24:20;;;;;;;208.60;98.70;;;;;;;;;;5032633;28;20030;-82
2022/01/09 09:26:46;;;;;;;198.77;96.10;;;;;;;;;;5022364;28;20081;-84
2022/01/09 09:29:12;;;;;;;207.02;95.97;;;;;;;;;;5007716;28;20137;-84
2022/01/09 09:31:39;;;;;;;213.93;98.55;;;;;;;;;;5035162;28;20029;-82
2022/01/09 09:34:08;;;;;;;217.25;95.25;;;;;;;;;;5035639;28;20025;-83
2022/01/09 09:36:34;;;;;;;206.00;98.85;;;;;;;;;;5034650;28;20464;-82
2022/01/09 09:39:01;;;;;;;216.88;96.75;;;;;;;;;;5017167;28;20075;-83
2022/01/09 09:41:27;;;;;;;218.93;99.07;;;;;;;;;;5016800;28;20030;-84
2022/01/09 09:43:53;;;;;;;211.25;95.80;;;;;;;;;;5035333;28;20032;-86
2022/01/09 09:46:24;;;;;;;207.68;94.35;;;;;;;;;;5030647;28;20029;-84
2022/01/09 09:48:50;;;;;;;211.65;97.75;;;;;;;;;;5025517;28;20026;-84
2022/01/09 09:51:17;;;;;;;213.30;96.70;;;;;;;;;;5032637;28;20079;-84
2022/01/09 09:53:43;;;;;;;217.70;96.93;;;;;;;;;;5035308;28;20033;-84
2022/01/09 09:56:10;;;;;;;209.57;95.47;;;;;;;;;;5035739;28;20029;-85
2022/01/09 09:58:43;;;;;;;206.30;96.90;;;;;;;;;;5034549;28;20029;-83
2022/01/09 10:01:22;;;;;;;200.95;92.18;;;;;;;;;;5023951;28;20033;-85
2022/01/09 10:03:53;;;;;;;209.93;93.10;;;;;;;;;;5014057;28;20489;-83
2022/01/09 10:06:33;;;;;;;197.55;88.88;;;;;;;;;;5022664;28;20034;-83
2022/01/09 10:09:05;;;;;;;198.50;92.70;;;;;;;;;;5038556;28;20037;-80
2022/01/09 10:11:41;;;;;;;196.52;89.68;;;;;;;;;;5036471;28;20049;-85
2022/01/09 10:14:11;;;;;;;211.15;91.60;;;;;;;;;;5016929;28;20106;-85
2022/01/09 10:16:38;;;;;;;204.38;93.15;;;;;;;;;;5033910;28;20468;-84
2022/01/09 10:19:04;;;;;;;217.15;94.50;;;;;;;;;;5026909;28;20108;-82
2022/01/09 10:21:30;;;;;;;198.02;92.78;;;;;;;;;;5034048;28;20548;-84
2022/01/09 10:24:07;;;;;;;212.23;94.72;;;;;;;;;;5030488;28;20026;-84
2022/01/09 10:26:38;;;;;;;199.70;92.50;;;;;;;;;;5030501;28;20040;-83
2022/01/09 10:29:06;;;;;;;209.52;92.50;;;;;;;;;;5025394;28;20096;-82
2022/01/09 10:31:40;;;;;;;209.70;92.38;;;;;;;;;;5025769;28;20022;-84
2022/01/09 10:34:08;;;;;;;217.23;96.45;;;;;;;;;;5007033;28;20108;-81
2022/01/09 10:36:40;;;;;;;215.60;94.80;;;;;;;;;;5009427;28;20088;-83
2022/01/09 10:39:14;;;;;;;201.07;90.78;;;;;;;;;;5027712;28;20017;-83
2022/01/09 10:41:50;;;;;;;207.57;89.28;;;;;;;;;;5026898;28;20476;-84
2022/01/09 10:44:17;;;;;;;211.50;95.15;;;;;;;;;;5013801;28;20087;-84
2022/01/09 10:47:03;;;;;;;212.82;93.15;;;;;;;;;;5033267;28;20026;-83
2022/01/09 10:49:40;;;;;;;220.95;93.50;;;;;;;;;;5010323;28;20076;-84
2022/01/09 10:52:14;;;;;;;216.43;92.88;;;;;;;;;;5024612;28;20022;-82
2022/01/09 10:54:42;;;;;;;210.15;93.53;;;;;;;;;;5025068;28;20496;-83
2022/01/09 10:57:13;;;;;;;208.57;94.68;;;;;;;;;;5031527;28;20382;-83
2022/01/09 10:59:39;;;;;;;212.98;94.90;;;;;;;;;;5012354;28;20477;-82
2022/01/09 11:02:06;;;;;;;195.90;88.10;;;;;;;;;;5008202;28;20060;-83
2022/01/09 11:04:32;;;;;;;203.48;92.38;;;;;;;;;;5014186;28;20093;-82
2022/01/09 11:07:00;;;;;;;216.35;93.30;;;;;;;;;;5034695;28;20033;-84
2022/01/09 11:09:29;;;;;;;209.25;93.80;;;;;;;;;;5030578;28;20525;-84
2022/01/09 11:11:56;;;;;;;215.48;91.68;;;;;;;;;;5030665;28;20032;-83
2022/01/09 11:14:24;;;;;;;221.25;98.18;;;;;;;;;;5030660;28;20087;-83
2022/01/09 11:16:54;;;;;;;211.23;96.97;;;;;;;;;;5014877;28;20396;-82
2022/01/09 11:19:37;;;;;;;221.48;97.13;;;;;;;;;;5026662;28;20037;-82
2022/01/09 11:22:07;;;;;;;232.80;98.88;;;;;;;;;;5030118;28;20524;-84
2022/01/09 11:24:52;;;;;;;227.88;99.03;;;;;;;;;;5016694;28;20037;-83
2022/01/09 11:27:19;;;;;;;243.90;105.65;;;;;;;;;;5034202;28;20389;-83
2022/01/09 11:30:03;;;;;;;247.32;104.22;;;;;;;;;;5030097;28;20061;-84
2022/01/09 11:32:39;;;;;;;232.68;106.13;;;;;;;;;;5025840;28;20025;-83
2022/01/09 11:35:12;;;;;;;237.90;105.57;;;;;;;;;;5031269;28;20109;-82
2022/01/09 11:37:41;;;;;;;263.40;118.15;;;;;;;;;;5036233;28;20029;-81
2022/01/09 11:40:27;;;;;;;259.88;119.45;;;;;;;;;;5035976;28;20037;-85
2022/01/09 11:43:14;;;;;;;257.20;114.53;;;;;;;;;;5027657;28;20083;-81
2022/01/09 11:45:47;;;;;;;254.35;110.55;;;;;;;;;;5034537;28;20033;-83
2022/01/09 11:48:15;;;;;;;249.93;112.97;;;;;;;;;;5032870;28;20497;-83
2022/01/09 11:51:14;;;;;;;258.83;117.43;;;;;;;;;;5030636;28;20081;-84
2022/01/09 11:53:58;;;;;;;267.63;114.32;;;;;;;;;;4972695;28;20049;-82
2022/01/09 11:56:43;;;;;;;271.00;119.03;;;;;;;;;;5029660;28;20021;-83
2022/01/09 11:59:23;;;;;;;263.77;116.18;;;;;;;;;;5028310;28;20033;-82
2022/01/09 12:01:50;;;;;;;267.05;119.22;;;;;;;;;;5036129;28;20035;-83
2022/01/09 12:04:37;;;;;;;269.60;118.38;;;;;;;;;;5016844;28;20036;-83
2022/01/09 12:07:07;;;;;;;266.25;116.97;;;;;;;;;;5033734;28;20481;-84
2022/01/09 12:09:48;;;;;;;274.17;116.40;;;;;;;;;;5038158;28;20080;-80
2022/01/09 12:12:34;;;;;;;282.95;115.28;;;;;;;;;;5019538;28;20120;-84
2022/01/09 12:15:03;;;;;;;285.23;119.90;;;;;;;;;;5030976;28;20104;-82
2022/01/09 12:17:32;;;;;;;280.02;119.80;;;;;;;;;;5026275;28;20385;-83
2022/01/09 12:20:04;;;;;;;262.75;108.93;;;;;;;;;;5008672;28;20026;-82
2022/01/09 12:25:28;;;;;;;270.77;126.10;;;;;;;;;;5018301;28;20038;-83
2022/01/09 12:28:04;;;;;;;264.65;122.38;;;;;;;;;;5020743;28;20033;-84
2022/01/09 12:30:33;;;;;;;281.85;123.03;;;;;;;;;;5032669;28;20026;-84
2022/01/09 12:33:08;;;;;;;288.17;126.32;;;;;;;;;;5030870;28;20017;-86
2022/01/09 12:35:35;;;;;;;275.17;123.65;;;;;;;;;;5014006;28;20435;-81
2022/01/09 12:38:02;;;;;;;273.08;125.10;;;;;;;;;;5031221;28;20056;-84
2022/01/09 12:40:35;;;;;;;264.35;114.78;;;;;;;;;;5014675;28;20029;-83
2022/01/09 12:43:03;;;;;;;256.77;114.25;;;;;;;;;;5030764;28;20034;-85
2022/01/09 12:45:31;;;;;;;240.07;106.22;;;;;;;;;;5039484;28;20026;-80
2022/01/09 12:47:58;;;;;;;239.00;101.28;;;;;;;;;;5034814;28;20029;-81
2022/01/09 12:50:28;;;;;;;206.77;91.63;;;;;;;;;;5014327;28;20429;-81
2022/01/09 12:53:13;;;;;;;212.52;92.82;;;;;;;;;;5039026;28;20030;-85
2022/01/09 12:55:58;;;;;;;209.70;89.85;;;;;;;;;;5038318;28;20036;-83
2022/01/09 12:58:45;;;;;;;215.27;89.07;;;;;;;;;;5036846;28;20053;-83
2022/01/09 13:01:11;;;;;;;221.23;94.90;;;;;;;;;;5017444;28;20036;-83
2022/01/09 13:03:37;;;;;;;214.98;91.85;;;;;;;;;;5014320;28;20040;-83
2022/01/09 13:06:08;;;;;;;213.20;89.07;;;;;;;;;;5029528;28;20094;-84
2022/01/09 13:08:35;;;;;;;201.70;88.50;;;;;;;;;;5018774;28;20045;-82
2022/01/09 13:11:08;;;;;;;211.85;89.43;;;;;;;;;;5042031;28;20022;-85
2022/01/09 13:13:35;;;;;;;197.45;87.07;;;;;;;;;;5034410;28;20036;-84
2022/01/09 13:16:15;;;;;;;209.45;90.88;;;;;;;;;;5037059;28;20061;-84
2022/01/09 13:18:42;;;;;;;210.85;88.30;;;;;;;;;;5012976;28;20044;-84
2022/01/09 13:21:14;;;;;;;201.45;88.20;;;;;;;;;;5026584;28;20053;-84
2022/01/09 13:23:50;;;;;;;197.02;85.57;;;;;;;;;;5014661;28;20427;-83
2022/01/09 13:26:17;;;;;;;197.20;84.97;;;;;;;;;;5008536;28;20034;-83
2022/01/09 13:28:47;;;;;;;200.65;83.93;;;;;;;;;;5027580;28;20037;-82
2022/01/09 13:31:13;;;;;;;195.27;84.03;;;;;;;;;;5028899;28;20034;-85
2022/01/09 13:33:52;;;;;;;195.90;84.82;;;;;;;;;;5012805;28;20461;-82
2022/01/09 13:36:35;;;;;;;196.95;82.10;;;;;;;;;;5028770;28;20029;-84
2022/01/09 13:39:03;;;;;;;198.93;84.15;;;;;;;;;;5028474;28;20381;-82
2022/01/09 13:41:30;;;;;;;196.15;83.57;;;;;;;;;;5029042;28;20481;-83
2022/01/09 13:43:57;;;;;;;182.32;80.35;;;;;;;;;;5021731;28;20030;-84
2022/01/09 13:46:23;;;;;;;188.90;79.93;;;;;;;;;;5022227;28;20026;-83
2022/01/09 13:48:50;;;;;;;203.05;82.40;;;;;;;;;;5032754;28;20492;-85
2022/01/09 13:51:36;;;;;;;189.85;80.05;;;;;;;;;;5021033;28;20040;-82
2022/01/09 13:54:03;;;;;;;190.55;77.90;;;;;;;;;;5024042;28;20119;-84
2022/01/09 13:56:30;;;;;;;182.98;78.97;;;;;;;;;;5011389;28;20029;-81
2022/01/09 13:58:57;;;;;;;187.77;80.05;;;;;;;;;;5029543;28;20397;-82
2022/01/09 14:01:38;;;;;;;180.20;76.53;;;;;;;;;;5026312;28;20037;-84
2022/01/09 14:04:12;;;;;;;189.48;79.35;;;;;;;;;;5030358;28;20033;-82
2022/01/09 14:06:38;;;;;;;176.25;76.38;;;;;;;;;;5026880;28;20110;-84
2022/01/09 14:09:05;;;;;;;186.88;78.90;;;;;;;;;;5009511;28;20029;-83
2022/01/09 14:11:31;;;;;;;178.77;80.38;;;;;;;;;;5007780;28;20403;-84
2022/01/09 14:13:58;;;;;;;193.10;80.07;;;;;;;;;;5026838;28;20032;-85